Terminal Aerodrome Forecast
Issued by NWS Quad Cities IA IL

Home | Current Version | Previous Version | Text Only | Print | Product List | Glossary On
Versions: 1 2 3 4 5 6 7 8 9 10 11 12 13 14 15
400
FTUS43 KDVN 280520
TAFMLI
TAF
KMLI 280520Z 2806/2906 16006KT P6SM BKN250 WS020/19040KT
     FM281200 18012G24KT P6SM BKN050
      TEMPO 2815/2819 3SM TSRA BKN035CB
     FM282000 17014G25KT P6SM VCSH SCT050
     FM290000 21012KT 6SM TSRA BR OVC035CB=

USA.gov is the U.S. government's official web portal to all federal, state and local government web resources and services.